sensor_id;sensor_type;location;lat;lon;timestamp;P1;durP1;ratioP1;P2;durP2;ratioP2
18520;SDS011;9390;51.244;6.982;2023-03-29T00:01:52;9.82;;;3.58;;
18520;SDS011;9390;51.244;6.982;2023-03-29T00:06:57;8.60;;;3.85;;
18520;SDS011;9390;51.244;6.982;2023-03-29T00:09:33;9.80;;;3.85;;
18520;SDS011;9390;51.244;6.982;2023-03-29T00:12:06;9.60;;;3.67;;
18520;SDS011;9390;51.244;6.982;2023-03-29T00:14:37;9.93;;;3.55;;
18520;SDS011;9390;51.244;6.982;2023-03-29T00:17:09;7.63;;;3.58;;
18520;SDS011;9390;51.244;6.982;2023-03-29T00:19:41;10.57;;;3.63;;
18520;SDS011;9390;51.244;6.982;2023-03-29T00:22:13;10.35;;;4.03;;
18520;SDS011;9390;51.244;6.982;2023-03-29T00:24:45;7.97;;;3.83;;
18520;SDS011;9390;51.244;6.982;2023-03-29T00:27:19;7.93;;;3.97;;
18520;SDS011;9390;51.244;6.982;2023-03-29T00:29:50;9.18;;;3.97;;
18520;SDS011;9390;51.244;6.982;2023-03-29T00:32:22;9.93;;;3.88;;
18520;SDS011;9390;51.244;6.982;2023-03-29T00:34:53;10.15;;;3.65;;
18520;SDS011;9390;51.244;6.982;2023-03-29T00:37:26;8.32;;;3.72;;
18520;SDS011;9390;51.244;6.982;2023-03-29T00:39:58;9.90;;;3.92;;
18520;SDS011;9390;51.244;6.982;2023-03-29T00:42:31;8.05;;;4.03;;
18520;SDS011;9390;51.244;6.982;2023-03-29T00:45:04;8.35;;;3.65;;
18520;SDS011;9390;51.244;6.982;2023-03-29T00:47:38;9.27;;;3.58;;
18520;SDS011;9390;51.244;6.982;2023-03-29T00:50:12;14.32;;;4.43;;
18520;SDS011;9390;51.244;6.982;2023-03-29T00:52:46;11.90;;;3.92;;
18520;SDS011;9390;51.244;6.982;2023-03-29T00:55:21;9.40;;;3.50;;
18520;SDS011;9390;51.244;6.982;2023-03-29T00:57:55;13.02;;;4.10;;
18520;SDS011;9390;51.244;6.982;2023-03-29T01:00:30;7.00;;;3.28;;
18520;SDS011;9390;51.244;6.982;2023-03-29T01:03:07;13.98;;;3.53;;
18520;SDS011;9390;51.244;6.982;2023-03-29T01:05:43;10.43;;;4.00;;
18520;SDS011;9390;51.244;6.982;2023-03-29T01:08:17;9.10;;;3.22;;
18520;SDS011;9390;51.244;6.982;2023-03-29T01:10:55;12.25;;;3.75;;
18520;SDS011;9390;51.244;6.982;2023-03-29T01:13:33;8.27;;;3.63;;
18520;SDS011;9390;51.244;6.982;2023-03-29T01:16:07;8.15;;;3.65;;
18520;SDS011;9390;51.244;6.982;2023-03-29T01:18:39;8.50;;;3.70;;
18520;SDS011;9390;51.244;6.982;2023-03-29T01:21:13;7.50;;;3.60;;
18520;SDS011;9390;51.244;6.982;2023-03-29T01:24:02;8.32;;;3.35;;
18520;SDS011;9390;51.244;6.982;2023-03-29T01:26:41;7.72;;;3.67;;
18520;SDS011;9390;51.244;6.982;2023-03-29T01:29:18;7.35;;;3.47;;
18520;SDS011;9390;51.244;6.982;2023-03-29T01:31:53;9.70;;;3.75;;
18520;SDS011;9390;51.244;6.982;2023-03-29T01:34:29;11.10;;;3.97;;
18520;SDS011;9390;51.244;6.982;2023-03-29T01:37:04;11.57;;;4.03;;
18520;SDS011;9390;51.244;6.982;2023-03-29T01:39:38;8.73;;;3.22;;
18520;SDS011;9390;51.244;6.982;2023-03-29T01:42:13;7.32;;;3.28;;
18520;SDS011;9390;51.244;6.982;2023-03-29T01:44:53;10.30;;;3.58;;
18520;SDS011;9390;51.244;6.982;2023-03-29T01:47:28;9.77;;;3.45;;
18520;SDS011;9390;51.244;6.982;2023-03-29T01:50:04;9.65;;;3.97;;
18520;SDS011;9390;51.244;6.982;2023-03-29T01:52:38;10.85;;;3.67;;
18520;SDS011;9390;51.244;6.982;2023-03-29T01:55:13;12.27;;;4.20;;
18520;SDS011;9390;51.244;6.982;2023-03-29T01:57:46;6.97;;;3.45;;
18520;SDS011;9390;51.244;6.982;2023-03-29T02:00:20;8.57;;;3.58;;
18520;SDS011;9390;51.244;6.982;2023-03-29T02:02:55;7.22;;;3.58;;
18520;SDS011;9390;51.244;6.982;2023-03-29T02:05:29;9.57;;;3.45;;
18520;SDS011;9390;51.244;6.982;2023-03-29T02:08:01;7.72;;;3.28;;
18520;SDS011;9390;51.244;6.982;2023-03-29T02:10:35;8.60;;;3.70;;
18520;SDS011;9390;51.244;6.982;2023-03-29T02:13:06;9.80;;;3.20;;
18520;SDS011;9390;51.244;6.982;2023-03-29T02:15:39;6.82;;;3.40;;
18520;SDS011;9390;51.244;6.982;2023-03-29T02:18:11;8.10;;;3.55;;
18520;SDS011;9390;51.244;6.982;2023-03-29T02:20:44;10.88;;;3.53;;
18520;SDS011;9390;51.244;6.982;2023-03-29T02:23:18;7.53;;;3.60;;
18520;SDS011;9390;51.244;6.982;2023-03-29T02:25:52;10.75;;;3.47;;
18520;SDS011;9390;51.244;6.982;2023-03-29T02:28:23;12.57;;;3.80;;
18520;SDS011;9390;51.244;6.982;2023-03-29T02:30:59;7.85;;;3.17;;
18520;SDS011;9390;51.244;6.982;2023-03-29T02:33:34;8.50;;;3.70;;
18520;SDS011;9390;51.244;6.982;2023-03-29T02:36:11;12.55;;;4.20;;
18520;SDS011;9390;51.244;6.982;2023-03-29T02:38:46;9.35;;;3.58;;
18520;SDS011;9390;51.244;6.982;2023-03-29T02:41:18;7.82;;;3.80;;
18520;SDS011;9390;51.244;6.982;2023-03-29T02:43:50;7.85;;;3.55;;
18520;SDS011;9390;51.244;6.982;2023-03-29T02:46:23;8.73;;;3.55;;
18520;SDS011;9390;51.244;6.982;2023-03-29T02:48:55;10.20;;;3.60;;
18520;SDS011;9390;51.244;6.982;2023-03-29T02:51:28;8.15;;;3.30;;
18520;SDS011;9390;51.244;6.982;2023-03-29T02:54:03;9.18;;;3.40;;
18520;SDS011;9390;51.244;6.982;2023-03-29T02:56:40;9.27;;;3.67;;
18520;SDS011;9390;51.244;6.982;2023-03-29T02:59:13;8.98;;;3.38;;
18520;SDS011;9390;51.244;6.982;2023-03-29T03:01:47;16.20;;;3.92;;
18520;SDS011;9390;51.244;6.982;2023-03-29T03:04:19;8.50;;;3.58;;
18520;SDS011;9390;51.244;6.982;2023-03-29T03:06:50;8.98;;;3.53;;
18520;SDS011;9390;51.244;6.982;2023-03-29T03:09:22;8.18;;;3.45;;
18520;SDS011;9390;51.244;6.982;2023-03-29T03:11:53;9.85;;;3.85;;
18520;SDS011;9390;51.244;6.982;2023-03-29T03:14:25;10.23;;;3.80;;
18520;SDS011;9390;51.244;6.982;2023-03-29T03:16:58;12.15;;;4.25;;
18520;SDS011;9390;51.244;6.982;2023-03-29T03:19:30;8.48;;;3.60;;
18520;SDS011;9390;51.244;6.982;2023-03-29T03:22:01;9.68;;;3.58;;
18520;SDS011;9390;51.244;6.982;2023-03-29T03:24:34;7.55;;;3.30;;
18520;SDS011;9390;51.244;6.982;2023-03-29T03:27:06;9.90;;;4.18;;
18520;SDS011;9390;51.244;6.982;2023-03-29T03:29:37;9.23;;;3.53;;
18520;SDS011;9390;51.244;6.982;2023-03-29T03:32:11;11.55;;;4.45;;
18520;SDS011;9390;51.244;6.982;2023-03-29T03:34:45;8.20;;;3.20;;
18520;SDS011;9390;51.244;6.982;2023-03-29T03:37:17;10.85;;;4.07;;
18520;SDS011;9390;51.244;6.982;2023-03-29T03:39:49;9.45;;;3.50;;
18520;SDS011;9390;51.244;6.982;2023-03-29T03:42:20;7.85;;;3.40;;
18520;SDS011;9390;51.244;6.982;2023-03-29T03:44:52;9.52;;;4.25;;
18520;SDS011;9390;51.244;6.982;2023-03-29T03:47:25;8.95;;;3.55;;
18520;SDS011;9390;51.244;6.982;2023-03-29T03:49:57;8.00;;;3.65;;
18520;SDS011;9390;51.244;6.982;2023-03-29T03:52:28;6.57;;;3.33;;
18520;SDS011;9390;51.244;6.982;2023-03-29T03:55:00;11.80;;;3.88;;
18520;SDS011;9390;51.244;6.982;2023-03-29T03:57:32;9.37;;;3.57;;
18520;SDS011;9390;51.244;6.982;2023-03-29T04:00:06;10.85;;;3.65;;
18520;SDS011;9390;51.244;6.982;2023-03-29T04:02:49;13.35;;;3.95;;
18520;SDS011;9390;51.244;6.982;2023-03-29T04:05:23;10.00;;;3.95;;
18520;SDS011;9390;51.244;6.982;2023-03-29T04:07:55;11.00;;;4.13;;
18520;SDS011;9390;51.244;6.982;2023-03-29T04:10:26;7.68;;;3.47;;
18520;SDS011;9390;51.244;6.982;2023-03-29T04:12:58;10.20;;;3.67;;
18520;SDS011;9390;51.244;6.982;2023-03-29T04:15:31;8.13;;;4.20;;
18520;SDS011;9390;51.244;6.982;2023-03-29T04:18:06;7.90;;;3.92;;
18520;SDS011;9390;51.244;6.982;2023-03-29T04:23:09;7.95;;;3.25;;
18520;SDS011;9390;51.244;6.982;2023-03-29T04:25:41;10.40;;;3.65;;
18520;SDS011;9390;51.244;6.982;2023-03-29T04:28:13;9.45;;;3.78;;
18520;SDS011;9390;51.244;6.982;2023-03-29T04:30:45;7.32;;;3.55;;
18520;SDS011;9390;51.244;6.982;2023-03-29T04:33:18;12.23;;;4.00;;
18520;SDS011;9390;51.244;6.982;2023-03-29T04:38:22;10.27;;;4.68;;
18520;SDS011;9390;51.244;6.982;2023-03-29T04:40:53;9.55;;;3.92;;
18520;SDS011;9390;51.244;6.982;2023-03-29T04:43:25;9.43;;;4.00;;
18520;SDS011;9390;51.244;6.982;2023-03-29T04:48:33;8.95;;;4.15;;
18520;SDS011;9390;51.244;6.982;2023-03-29T04:51:06;9.88;;;3.80;;
18520;SDS011;9390;51.244;6.982;2023-03-29T04:53:38;11.38;;;4.43;;
18520;SDS011;9390;51.244;6.982;2023-03-29T04:56:10;10.73;;;5.13;;
18520;SDS011;9390;51.244;6.982;2023-03-29T04:58:42;14.57;;;4.68;;
18520;SDS011;9390;51.244;6.982;2023-03-29T05:01:14;12.60;;;4.85;;
18520;SDS011;9390;51.244;6.982;2023-03-29T05:03:48;12.20;;;5.20;;
18520;SDS011;9390;51.244;6.982;2023-03-29T05:06:20;12.90;;;6.18;;
18520;SDS011;9390;51.244;6.982;2023-03-29T05:08:52;17.20;;;5.95;;
18520;SDS011;9390;51.244;6.982;2023-03-29T05:11:24;17.83;;;6.40;;
18520;SDS011;9390;51.244;6.982;2023-03-29T05:13:56;15.90;;;6.03;;
18520;SDS011;9390;51.244;6.982;2023-03-29T05:16:32;15.57;;;5.72;;
18520;SDS011;9390;51.244;6.982;2023-03-29T05:19:06;14.57;;;6.50;;
18520;SDS011;9390;51.244;6.982;2023-03-29T05:21:38;16.88;;;6.70;;
18520;SDS011;9390;51.244;6.982;2023-03-29T05:24:10;14.77;;;6.57;;
18520;SDS011;9390;51.244;6.982;2023-03-29T05:26:42;13.18;;;5.80;;
18520;SDS011;9390;51.244;6.982;2023-03-29T05:29:20;12.98;;;6.00;;
18520;SDS011;9390;51.244;6.982;2023-03-29T05:31:59;17.80;;;6.10;;
18520;SDS011;9390;51.244;6.982;2023-03-29T05:38:04;18.20;;;6.75;;
18520;SDS011;9390;51.244;6.982;2023-03-29T05:49:22;19.60;;;6.17;;
18520;SDS011;9390;51.244;6.982;2023-03-29T05:51:54;11.98;;;6.35;;
18520;SDS011;9390;51.244;6.982;2023-03-29T05:57:27;15.48;;;7.22;;
18520;SDS011;9390;51.244;6.982;2023-03-29T05:59:58;13.75;;;6.47;;
18520;SDS011;9390;51.244;6.982;2023-03-29T06:02:31;12.25;;;6.32;;
18520;SDS011;9390;51.244;6.982;2023-03-29T06:05:02;14.95;;;5.78;;
18520;SDS011;9390;51.244;6.982;2023-03-29T06:11:03;14.55;;;6.22;;
18520;SDS011;9390;51.244;6.982;2023-03-29T06:13:37;12.50;;;5.88;;
18520;SDS011;9390;51.244;6.982;2023-03-29T06:16:10;12.07;;;5.80;;
18520;SDS011;9390;51.244;6.982;2023-03-29T06:18:42;12.93;;;5.85;;
18520;SDS011;9390;51.244;6.982;2023-03-29T06:21:13;14.60;;;7.20;;
18520;SDS011;9390;51.244;6.982;2023-03-29T06:24:01;12.13;;;5.40;;
18520;SDS011;9390;51.244;6.982;2023-03-29T06:26:34;13.02;;;5.30;;
18520;SDS011;9390;51.244;6.982;2023-03-29T06:29:06;15.13;;;5.50;;
18520;SDS011;9390;51.244;6.982;2023-03-29T06:31:38;12.33;;;5.67;;
18520;SDS011;9390;51.244;6.982;2023-03-29T06:34:09;13.00;;;5.32;;
18520;SDS011;9390;51.244;6.982;2023-03-29T06:36:42;10.02;;;5.38;;
18520;SDS011;9390;51.244;6.982;2023-03-29T06:39:14;10.63;;;4.97;;
18520;SDS011;9390;51.244;6.982;2023-03-29T06:41:47;14.45;;;5.38;;
18520;SDS011;9390;51.244;6.982;2023-03-29T06:44:19;11.13;;;4.88;;
18520;SDS011;9390;51.244;6.982;2023-03-29T06:49:22;10.10;;;4.18;;
18520;SDS011;9390;51.244;6.982;2023-03-29T06:51:53;11.90;;;5.20;;
18520;SDS011;9390;51.244;6.982;2023-03-29T06:54:26;9.97;;;4.47;;
18520;SDS011;9390;51.244;6.982;2023-03-29T06:56:59;9.55;;;4.45;;
18520;SDS011;9390;51.244;6.982;2023-03-29T06:59:30;14.18;;;4.45;;
18520;SDS011;9390;51.244;6.982;2023-03-29T07:02:03;9.15;;;4.53;;
18520;SDS011;9390;51.244;6.982;2023-03-29T07:04:36;9.00;;;4.05;;
18520;SDS011;9390;51.244;6.982;2023-03-29T07:07:08;19.90;;;8.23;;
18520;SDS011;9390;51.244;6.982;2023-03-29T07:09:48;18.83;;;6.80;;
18520;SDS011;9390;51.244;6.982;2023-03-29T07:12:24;10.05;;;4.60;;
18520;SDS011;9390;51.244;6.982;2023-03-29T07:14:56;11.07;;;4.20;;
18520;SDS011;9390;51.244;6.982;2023-03-29T07:17:28;13.88;;;4.28;;
18520;SDS011;9390;51.244;6.982;2023-03-29T07:19:59;10.48;;;4.13;;
18520;SDS011;9390;51.244;6.982;2023-03-29T07:22:31;10.48;;;3.90;;
18520;SDS011;9390;51.244;6.982;2023-03-29T07:25:03;10.63;;;4.45;;
18520;SDS011;9390;51.244;6.982;2023-03-29T07:27:36;8.53;;;3.60;;
18520;SDS011;9390;51.244;6.982;2023-03-29T07:32:45;8.85;;;3.42;;
18520;SDS011;9390;51.244;6.982;2023-03-29T07:35:17;6.32;;;3.78;;
18520;SDS011;9390;51.244;6.982;2023-03-29T07:37:49;10.57;;;4.10;;
18520;SDS011;9390;51.244;6.982;2023-03-29T07:40:21;9.90;;;4.25;;
18520;SDS011;9390;51.244;6.982;2023-03-29T07:42:55;8.87;;;4.20;;
18520;SDS011;9390;51.244;6.982;2023-03-29T07:48:43;9.07;;;3.80;;
18520;SDS011;9390;51.244;6.982;2023-03-29T07:51:17;10.35;;;3.50;;
18520;SDS011;9390;51.244;6.982;2023-03-29T07:53:49;10.23;;;3.70;;
18520;SDS011;9390;51.244;6.982;2023-03-29T07:56:21;9.77;;;4.20;;
18520;SDS011;9390;51.244;6.982;2023-03-29T07:58:54;8.02;;;3.38;;
18520;SDS011;9390;51.244;6.982;2023-03-29T08:04:50;9.38;;;3.22;;
18520;SDS011;9390;51.244;6.982;2023-03-29T08:07:23;8.02;;;4.00;;
18520;SDS011;9390;51.244;6.982;2023-03-29T08:13:23;7.00;;;3.28;;
18520;SDS011;9390;51.244;6.982;2023-03-29T08:19:23;7.35;;;3.60;;
18520;SDS011;9390;51.244;6.982;2023-03-29T08:21:55;7.15;;;3.67;;
18520;SDS011;9390;51.244;6.982;2023-03-29T08:24:26;8.98;;;3.70;;
18520;SDS011;9390;51.244;6.982;2023-03-29T08:26:58;9.95;;;3.63;;
18520;SDS011;9390;51.244;6.982;2023-03-29T08:29:30;9.20;;;3.50;;
18520;SDS011;9390;51.244;6.982;2023-03-29T08:32:01;9.27;;;3.97;;
18520;SDS011;9390;51.244;6.982;2023-03-29T08:34:34;8.48;;;3.60;;
18520;SDS011;9390;51.244;6.982;2023-03-29T08:37:07;10.40;;;3.88;;
18520;SDS011;9390;51.244;6.982;2023-03-29T08:39:40;7.95;;;3.45;;
18520;SDS011;9390;51.244;6.982;2023-03-29T08:42:15;9.48;;;3.70;;
18520;SDS011;9390;51.244;6.982;2023-03-29T08:44:58;12.45;;;4.93;;
18520;SDS011;9390;51.244;6.982;2023-03-29T08:47:34;9.48;;;3.80;;
18520;SDS011;9390;51.244;6.982;2023-03-29T08:56:11;8.75;;;3.63;;
18520;SDS011;9390;51.244;6.982;2023-03-29T08:58:45;10.63;;;4.30;;
18520;SDS011;9390;51.244;6.982;2023-03-29T09:01:18;12.60;;;4.03;;
18520;SDS011;9390;51.244;6.982;2023-03-29T09:03:54;14.25;;;4.03;;
18520;SDS011;9390;51.244;6.982;2023-03-29T09:06:32;9.43;;;4.00;;
18520;SDS011;9390;51.244;6.982;2023-03-29T09:09:04;8.52;;;3.65;;
18520;SDS011;9390;51.244;6.982;2023-03-29T09:11:51;10.15;;;3.95;;
18520;SDS011;9390;51.244;6.982;2023-03-29T09:14:34;9.13;;;3.95;;
18520;SDS011;9390;51.244;6.982;2023-03-29T09:19:59;16.35;;;4.60;;
18520;SDS011;9390;51.244;6.982;2023-03-29T09:22:38;10.98;;;4.10;;
18520;SDS011;9390;51.244;6.982;2023-03-29T09:25:12;9.73;;;3.90;;
18520;SDS011;9390;51.244;6.982;2023-03-29T09:27:53;9.98;;;4.10;;
18520;SDS011;9390;51.244;6.982;2023-03-29T09:30:29;11.77;;;4.28;;
18520;SDS011;9390;51.244;6.982;2023-03-29T09:33:03;14.35;;;5.63;;
18520;SDS011;9390;51.244;6.982;2023-03-29T09:35:37;10.25;;;4.20;;
18520;SDS011;9390;51.244;6.982;2023-03-29T09:38:11;10.80;;;3.90;;
18520;SDS011;9390;51.244;6.982;2023-03-29T09:43:17;8.18;;;3.05;;
18520;SDS011;9390;51.244;6.982;2023-03-29T09:45:56;7.80;;;3.20;;
18520;SDS011;9390;51.244;6.982;2023-03-29T09:48:33;11.27;;;4.20;;
18520;SDS011;9390;51.244;6.982;2023-03-29T09:51:07;12.25;;;3.65;;
18520;SDS011;9390;51.244;6.982;2023-03-29T09:53:40;9.13;;;3.50;;
18520;SDS011;9390;51.244;6.982;2023-03-29T09:56:11;8.70;;;3.55;;
18520;SDS011;9390;51.244;6.982;2023-03-29T10:01:17;8.88;;;3.85;;
18520;SDS011;9390;51.244;6.982;2023-03-29T10:03:49;7.65;;;3.20;;
18520;SDS011;9390;51.244;6.982;2023-03-29T10:06:22;9.67;;;4.40;;
18520;SDS011;9390;51.244;6.982;2023-03-29T10:11:28;8.25;;;3.50;;
18520;SDS011;9390;51.244;6.982;2023-03-29T10:14:03;11.23;;;4.03;;
18520;SDS011;9390;51.244;6.982;2023-03-29T10:16:36;8.15;;;4.45;;
18520;SDS011;9390;51.244;6.982;2023-03-29T10:19:14;10.82;;;3.85;;
18520;SDS011;9390;51.244;6.982;2023-03-29T10:21:47;12.02;;;4.05;;
18520;SDS011;9390;51.244;6.982;2023-03-29T10:24:19;9.35;;;3.30;;
18520;SDS011;9390;51.244;6.982;2023-03-29T10:26:52;13.25;;;4.03;;
18520;SDS011;9390;51.244;6.982;2023-03-29T10:29:26;13.68;;;3.97;;
18520;SDS011;9390;51.244;6.982;2023-03-29T10:31:58;16.90;;;4.03;;
18520;SDS011;9390;51.244;6.982;2023-03-29T10:34:29;10.57;;;4.45;;
18520;SDS011;9390;51.244;6.982;2023-03-29T10:37:01;12.05;;;4.05;;
18520;SDS011;9390;51.244;6.982;2023-03-29T10:39:33;16.37;;;4.20;;
18520;SDS011;9390;51.244;6.982;2023-03-29T10:42:05;10.32;;;3.72;;
18520;SDS011;9390;51.244;6.982;2023-03-29T10:44:38;12.52;;;3.95;;
18520;SDS011;9390;51.244;6.982;2023-03-29T10:47:13;12.38;;;3.88;;
18520;SDS011;9390;51.244;6.982;2023-03-29T10:49:48;9.20;;;3.70;;
18520;SDS011;9390;51.244;6.982;2023-03-29T10:52:21;10.45;;;3.65;;
18520;SDS011;9390;51.244;6.982;2023-03-29T10:54:53;7.97;;;3.67;;
18520;SDS011;9390;51.244;6.982;2023-03-29T10:57:26;11.48;;;3.95;;
18520;SDS011;9390;51.244;6.982;2023-03-29T11:00:04;13.00;;;3.72;;
18520;SDS011;9390;51.244;6.982;2023-03-29T11:02:47;12.43;;;3.80;;
18520;SDS011;9390;51.244;6.982;2023-03-29T11:05:30;9.45;;;3.92;;
18520;SDS011;9390;51.244;6.982;2023-03-29T11:08:11;9.02;;;3.88;;
18520;SDS011;9390;51.244;6.982;2023-03-29T11:10:54;9.38;;;3.53;;
18520;SDS011;9390;51.244;6.982;2023-03-29T11:13:31;12.55;;;3.63;;
18520;SDS011;9390;51.244;6.982;2023-03-29T11:16:11;8.70;;;3.67;;
18520;SDS011;9390;51.244;6.982;2023-03-29T11:19:02;8.18;;;3.58;;
18520;SDS011;9390;51.244;6.982;2023-03-29T11:21:41;8.77;;;3.33;;
18520;SDS011;9390;51.244;6.982;2023-03-29T11:24:24;9.65;;;3.53;;
18520;SDS011;9390;51.244;6.982;2023-03-29T11:27:01;9.90;;;3.30;;
18520;SDS011;9390;51.244;6.982;2023-03-29T11:29:41;11.40;;;3.97;;
18520;SDS011;9390;51.244;6.982;2023-03-29T11:32:21;12.48;;;3.80;;
18520;SDS011;9390;51.244;6.982;2023-03-29T11:35:00;10.85;;;3.88;;
18520;SDS011;9390;51.244;6.982;2023-03-29T11:37:37;8.32;;;3.47;;
18520;SDS011;9390;51.244;6.982;2023-03-29T11:40:21;13.15;;;4.30;;
18520;SDS011;9390;51.244;6.982;2023-03-29T11:43:07;8.77;;;3.60;;
18520;SDS011;9390;51.244;6.982;2023-03-29T11:45:42;9.23;;;3.63;;
18520;SDS011;9390;51.244;6.982;2023-03-29T11:48:18;8.20;;;3.67;;
18520;SDS011;9390;51.244;6.982;2023-03-29T11:50:53;8.65;;;3.72;;
18520;SDS011;9390;51.244;6.982;2023-03-29T11:53:28;12.32;;;3.83;;
18520;SDS011;9390;51.244;6.982;2023-03-29T11:56:05;7.47;;;3.45;;
18520;SDS011;9390;51.244;6.982;2023-03-29T11:58:39;12.05;;;3.13;;
18520;SDS011;9390;51.244;6.982;2023-03-29T12:01:14;10.80;;;4.72;;
18520;SDS011;9390;51.244;6.982;2023-03-29T12:03:49;8.43;;;3.63;;
18520;SDS011;9390;51.244;6.982;2023-03-29T12:06:22;9.50;;;3.60;;
18520;SDS011;9390;51.244;6.982;2023-03-29T12:08:57;9.88;;;3.95;;
18520;SDS011;9390;51.244;6.982;2023-03-29T12:11:32;10.88;;;4.30;;
18520;SDS011;9390;51.244;6.982;2023-03-29T12:14:08;11.27;;;3.95;;
18520;SDS011;9390;51.244;6.982;2023-03-29T12:16:43;8.68;;;3.72;;
18520;SDS011;9390;51.244;6.982;2023-03-29T12:19:20;11.15;;;4.15;;
18520;SDS011;9390;51.244;6.982;2023-03-29T12:21:57;10.38;;;4.20;;
18520;SDS011;9390;51.244;6.982;2023-03-29T12:24:30;11.90;;;4.05;;
18520;SDS011;9390;51.244;6.982;2023-03-29T12:27:06;10.93;;;4.00;;
18520;SDS011;9390;51.244;6.982;2023-03-29T12:32:57;9.15;;;4.15;;
18520;SDS011;9390;51.244;6.982;2023-03-29T12:35:37;12.15;;;4.10;;
18520;SDS011;9390;51.244;6.982;2023-03-29T12:38:13;10.82;;;4.43;;
18520;SDS011;9390;51.244;6.982;2023-03-29T12:40:47;9.70;;;3.97;;
18520;SDS011;9390;51.244;6.982;2023-03-29T12:43:24;13.07;;;4.70;;
18520;SDS011;9390;51.244;6.982;2023-03-29T12:46:04;11.55;;;4.25;;
18520;SDS011;9390;51.244;6.982;2023-03-29T12:48:36;9.98;;;4.20;;
18520;SDS011;9390;51.244;6.982;2023-03-29T12:51:12;10.57;;;4.20;;
18520;SDS011;9390;51.244;6.982;2023-03-29T12:53:46;12.50;;;4.55;;
18520;SDS011;9390;51.244;6.982;2023-03-29T12:58:52;12.52;;;4.10;;
18520;SDS011;9390;51.244;6.982;2023-03-29T13:01:26;12.20;;;4.40;;
18520;SDS011;9390;51.244;6.982;2023-03-29T13:04:12;11.45;;;4.43;;
18520;SDS011;9390;51.244;6.982;2023-03-29T13:06:54;10.63;;;4.18;;
18520;SDS011;9390;51.244;6.982;2023-03-29T13:09:33;10.02;;;4.18;;
18520;SDS011;9390;51.244;6.982;2023-03-29T13:12:07;10.32;;;4.53;;
18520;SDS011;9390;51.244;6.982;2023-03-29T13:14:48;16.38;;;4.70;;
18520;SDS011;9390;51.244;6.982;2023-03-29T13:17:23;8.77;;;3.97;;
18520;SDS011;9390;51.244;6.982;2023-03-29T13:20:08;11.90;;;4.03;;
18520;SDS011;9390;51.244;6.982;2023-03-29T13:22:49;10.48;;;4.30;;
18520;SDS011;9390;51.244;6.982;2023-03-29T13:25:34;11.88;;;5.28;;
18520;SDS011;9390;51.244;6.982;2023-03-29T13:28:15;11.82;;;5.97;;
18520;SDS011;9390;51.244;6.982;2023-03-29T13:30:50;15.30;;;6.80;;
18520;SDS011;9390;51.244;6.982;2023-03-29T13:36:30;10.48;;;4.05;;
18520;SDS011;9390;51.244;6.982;2023-03-29T13:39:13;9.93;;;4.22;;
18520;SDS011;9390;51.244;6.982;2023-03-29T13:41:46;9.13;;;3.42;;
18520;SDS011;9390;51.244;6.982;2023-03-29T13:44:25;11.40;;;4.00;;
18520;SDS011;9390;51.244;6.982;2023-03-29T13:47:04;13.35;;;3.28;;
18520;SDS011;9390;51.244;6.982;2023-03-29T13:49:39;7.10;;;2.50;;
18520;SDS011;9390;51.244;6.982;2023-03-29T13:52:14;10.02;;;2.60;;
18520;SDS011;9390;51.244;6.982;2023-03-29T13:54:49;5.63;;;1.85;;
18520;SDS011;9390;51.244;6.982;2023-03-29T13:57:23;6.93;;;2.63;;
18520;SDS011;9390;51.244;6.982;2023-03-29T14:00:02;9.85;;;2.50;;
18520;SDS011;9390;51.244;6.982;2023-03-29T14:02:42;3.63;;;1.92;;
18520;SDS011;9390;51.244;6.982;2023-03-29T14:05:15;7.43;;;2.33;;
18520;SDS011;9390;51.244;6.982;2023-03-29T14:07:48;5.22;;;1.90;;
18520;SDS011;9390;51.244;6.982;2023-03-29T14:10:23;8.60;;;2.60;;
18520;SDS011;9390;51.244;6.982;2023-03-29T14:12:57;7.47;;;2.33;;
18520;SDS011;9390;51.244;6.982;2023-03-29T14:15:36;11.23;;;3.00;;
18520;SDS011;9390;51.244;6.982;2023-03-29T14:18:13;6.18;;;2.47;;
18520;SDS011;9390;51.244;6.982;2023-03-29T14:20:46;5.90;;;2.08;;
18520;SDS011;9390;51.244;6.982;2023-03-29T14:23:19;5.78;;;2.00;;
18520;SDS011;9390;51.244;6.982;2023-03-29T14:25:53;5.35;;;1.90;;
18520;SDS011;9390;51.244;6.982;2023-03-29T14:28:24;6.80;;;2.28;;
18520;SDS011;9390;51.244;6.982;2023-03-29T14:30:57;7.68;;;2.20;;
18520;SDS011;9390;51.244;6.982;2023-03-29T14:33:28;6.32;;;2.22;;
18520;SDS011;9390;51.244;6.982;2023-03-29T14:36:03;7.85;;;2.08;;
18520;SDS011;9390;51.244;6.982;2023-03-29T14:38:35;6.15;;;2.03;;
18520;SDS011;9390;51.244;6.982;2023-03-29T14:41:08;7.28;;;2.00;;
18520;SDS011;9390;51.244;6.982;2023-03-29T14:43:39;9.82;;;2.55;;
18520;SDS011;9390;51.244;6.982;2023-03-29T14:46:11;6.90;;;2.15;;
18520;SDS011;9390;51.244;6.982;2023-03-29T14:48:46;7.68;;;2.15;;
18520;SDS011;9390;51.244;6.982;2023-03-29T14:51:17;5.18;;;1.92;;
18520;SDS011;9390;51.244;6.982;2023-03-29T14:53:49;6.85;;;2.08;;
18520;SDS011;9390;51.244;6.982;2023-03-29T14:56:22;7.50;;;2.00;;
18520;SDS011;9390;51.244;6.982;2023-03-29T14:58:55;7.32;;;2.28;;
18520;SDS011;9390;51.244;6.982;2023-03-29T15:01:27;8.90;;;2.00;;
18520;SDS011;9390;51.244;6.982;2023-03-29T15:04:00;5.20;;;1.90;;
18520;SDS011;9390;51.244;6.982;2023-03-29T15:06:35;7.93;;;2.05;;
18520;SDS011;9390;51.244;6.982;2023-03-29T15:09:09;4.38;;;2.00;;
18520;SDS011;9390;51.244;6.982;2023-03-29T15:11:50;6.00;;;2.15;;
18520;SDS011;9390;51.244;6.982;2023-03-29T15:14:23;6.90;;;2.58;;
18520;SDS011;9390;51.244;6.982;2023-03-29T15:16:58;7.53;;;2.55;;
18520;SDS011;9390;51.244;6.982;2023-03-29T15:19:32;4.43;;;2.17;;
18520;SDS011;9390;51.244;6.982;2023-03-29T15:22:04;8.75;;;2.13;;
18520;SDS011;9390;51.244;6.982;2023-03-29T15:24:41;5.15;;;2.10;;
18520;SDS011;9390;51.244;6.982;2023-03-29T15:27:16;6.03;;;2.00;;
18520;SDS011;9390;51.244;6.982;2023-03-29T15:29:57;6.28;;;1.80;;
18520;SDS011;9390;51.244;6.982;2023-03-29T15:32:31;6.50;;;1.77;;
18520;SDS011;9390;51.244;6.982;2023-03-29T15:35:04;5.07;;;1.80;;
18520;SDS011;9390;51.244;6.982;2023-03-29T15:37:38;5.63;;;1.52;;
18520;SDS011;9390;51.244;6.982;2023-03-29T15:40:11;4.45;;;1.75;;
18520;SDS011;9390;51.244;6.982;2023-03-29T15:42:45;4.68;;;1.67;;
18520;SDS011;9390;51.244;6.982;2023-03-29T15:47:49;5.35;;;1.48;;
18520;SDS011;9390;51.244;6.982;2023-03-29T15:50:20;6.72;;;1.95;;
18520;SDS011;9390;51.244;6.982;2023-03-29T15:52:52;5.15;;;1.77;;
18520;SDS011;9390;51.244;6.982;2023-03-29T15:55:28;6.32;;;1.83;;
18520;SDS011;9390;51.244;6.982;2023-03-29T15:58:01;5.28;;;2.08;;
18520;SDS011;9390;51.244;6.982;2023-03-29T16:03:04;17.02;;;7.20;;
18520;SDS011;9390;51.244;6.982;2023-03-29T16:05:36;11.98;;;3.50;;
18520;SDS011;9390;51.244;6.982;2023-03-29T16:08:08;8.55;;;2.13;;
18520;SDS011;9390;51.244;6.982;2023-03-29T16:13:14;7.38;;;2.03;;
18520;SDS011;9390;51.244;6.982;2023-03-29T16:15:45;5.38;;;1.90;;
18520;SDS011;9390;51.244;6.982;2023-03-29T16:18:20;11.75;;;2.47;;
18520;SDS011;9390;51.244;6.982;2023-03-29T16:20:51;5.68;;;2.08;;
18520;SDS011;9390;51.244;6.982;2023-03-29T16:23:23;9.05;;;2.30;;
18520;SDS011;9390;51.244;6.982;2023-03-29T16:25:54;5.88;;;2.67;;
18520;SDS011;9390;51.244;6.982;2023-03-29T16:28:29;6.47;;;2.30;;
18520;SDS011;9390;51.244;6.982;2023-03-29T16:31:00;9.43;;;2.30;;
18520;SDS011;9390;51.244;6.982;2023-03-29T16:33:32;9.77;;;2.60;;
18520;SDS011;9390;51.244;6.982;2023-03-29T16:36:04;7.70;;;2.58;;
18520;SDS011;9390;51.244;6.982;2023-03-29T16:38:37;6.63;;;1.88;;
18520;SDS011;9390;51.244;6.982;2023-03-29T16:41:09;5.85;;;1.92;;
18520;SDS011;9390;51.244;6.982;2023-03-29T16:43:42;5.22;;;2.05;;
18520;SDS011;9390;51.244;6.982;2023-03-29T16:48:45;7.78;;;2.78;;
18520;SDS011;9390;51.244;6.982;2023-03-29T16:51:17;8.10;;;3.20;;
18520;SDS011;9390;51.244;6.982;2023-03-29T16:53:49;7.93;;;2.38;;
18520;SDS011;9390;51.244;6.982;2023-03-29T16:56:22;7.75;;;2.30;;
18520;SDS011;9390;51.244;6.982;2023-03-29T16:58:55;5.97;;;2.00;;
18520;SDS011;9390;51.244;6.982;2023-03-29T17:03:58;7.75;;;2.10;;